Noaa Gloria Michelle — KJLW — position and weather

sailwx.info

Track history (hours):
 
Tides and Currents Weather Stations Pressure Air Temp Water Temp Dewpoint Dewpoint Depression Visibility Wind Speed Wind Dir Waves Ship Positions

Noaa Gloria Michelle

Last reported at 2015-May-22 19:30 UTC. Time now 2015-May-29 04:08 UTC.
Position N 41°32' W 070°40'.

Length 22 m; draft 3 m.

Type: Fishing. MMSI: 338066383.

Date/timePositionNaut miles runAvg speedWind from/ knotsBaromVisibWave heightAir tempDewpointWater temp
2015-May-22 19:30N 41°32' W 070°40'0 0.0
2015-May-22 09:26N 41°32' W 070°40'0 0.0
2015-May-22 00:20N 41°32' W 070°40'0 0.0
2015-May-21 23:32N 41°32' W 070°40'0 0.0
2015-May-21 22:32N 41°32' W 070°40'0 0.0
2015-May-21 21:26N 41°32' W 070°40'0 0.0
2015-May-21 20:25N 41°32' W 070°41'6 5.8
2015-May-21 19:25N 41°30' W 070°48'10 8.2
2015-May-21 18:15N 41°27' W 071°00'3 3.9
2015-May-21 17:30N 41°30' W 071°03'3 3.0
2015-May-21 16:33N 41°27' W 071°03'3 2.9
2015-May-21 15:33N 41°25' W 070°60'7 6.9
2015-May-21 14:33N 41°20' W 070°54'1 1.4
2015-May-21 13:34N 41°21' W 070°54'1 0.8
2015-May-21 12:33N 41°21' W 070°53'2 2.4
2015-May-21 11:33N 41°22' W 070°50'8 7.4
2015-May-21 10:32N 41°28' W 070°44'5 0.2
2015-May-20 06:13N 41°32' W 070°40'0 0.0
2015-May-20 04:18N 41°32' W 070°40'0 0.0
2015-May-20 03:12N 41°32' W 070°40'0 0.0
2015-May-20 02:24N 41°32' W 070°40'0 0.0
2015-May-20 01:27N 41°32' W 070°40'0 0.0
2015-May-20 00:30N 41°32' W 070°40'0 0.0
2015-May-19 23:34N 41°32' W 070°40'0 0.0
2015-May-19 22:33N 41°32' W 070°40'0 0.0
2015-May-19 12:25N 41°32' W 070°40'0 0.0
2015-May-19 11:31N 41°32' W 070°40'0 0.0
2015-May-19 10:28N 41°32' W 070°40'0 0.0
2015-May-19 09:31N 41°32' W 070°40'0 0.0
2015-May-19 08:25N 41°32' W 070°40'0 0.0
2015-May-19 07:31N 41°32' W 070°40'0 0.0
2015-May-19 06:31N 41°32' W 070°40'0 0.0
2015-May-19 05:31N 41°32' W 070°40'0 0.0
2015-May-19 04:31N 41°32' W 070°40'0 0.0
2015-May-19 03:31N 41°32' W 070°40'0 0.0
2015-May-19 02:31N 41°32' W 070°40'0 0.0
2015-May-19 01:31N 41°32' W 070°40'0 0.0
2015-May-19 00:31N 41°32' W 070°40'0 0.0
2015-May-18 23:31N 41°32' W 070°40'0 0.0
2015-May-18 22:28N 41°32' W 070°40'0 0.0
2015-May-18 18:19N 41°32' W 070°40'0 0.0
2015-May-18 17:31N 41°32' W 070°40'2 1.6
2015-May-18 16:33N 41°30' W 070°40'6 5.8
2015-May-18 15:30N 41°26' W 070°47'6 6.6
2015-May-18 14:33N 41°22' W 070°53'1 1.2
2015-May-18 13:33N 41°21' W 070°54'6 5.5
2015-May-18 12:32N 41°18' W 070°48'3 2.9
2015-May-18 11:33N 41°17' W 070°45'1 0.8
2015-May-18 10:33N 41°18' W 070°44'2 2.4
2015-May-18 09:33N 41°20' W 070°43'0 0.1
2015-May-18 08:33N 41°20' W 070°43'0 0.0
2015-May-18 07:27N 41°20' W 070°43'0 0.0
2015-May-18 04:32N 41°20' W 070°43'0 0.0
2015-May-18 03:33N 41°20' W 070°43'0 0.0
2015-May-18 02:33N 41°20' W 070°43'0 0.0
2015-May-18 01:32N 41°20' W 070°43'0 0.0
2015-May-18 00:33N 41°20' W 070°43'4 3.6
2015-May-17 23:28N 41°19' W 070°38'4 3.3
2015-May-17 22:13N 41°19' W 070°32'2 0.7
2015-May-17 19:33N 41°19' W 070°30'6 5.1
2015-May-17 18:27N 41°15' W 070°25'8 9.1
2015-May-17 17:33N 41°14' W 070°14'3 2.8
2015-May-17 16:33N 41°14' W 070°10'5 5.2
2015-May-17 15:33N 41°15' W 070°17'2 1.9
2015-May-17 14:13N 41°16' W 070°20'2 2.8
2015-May-17 13:32N 41°16' W 070°22'6 4.5
2015-May-17 12:10N 41°22' W 070°24'13 0.6
2015-May-16 14:20N 41°29' W 070°08'7 8.6
2015-May-16 13:33N 41°23' W 070°05'2 1.6
2015-May-16 12:32N 41°22' W 070°04'2 1.8
2015-May-16 11:25N 41°21' W 070°06'1 0.8
2015-May-16 10:32N 41°20' W 070°07'4 2.8
2015-May-16 09:16N 41°17' W 070°06'0 0.0
2015-May-16 08:28N 41°17' W 070°06'0 0.0
2015-May-16 07:04N 41°17' W 070°06'0 0.0
2015-May-16 06:13N 41°17' W 070°06'0 0.0
2015-May-16 05:28N 41°17' W 070°06'0 0.0
2015-May-16 04:31N 41°17' W 070°06'0 0.0
2015-May-16 03:31N 41°17' W 070°06'0 0.0
2015-May-16 02:23N 41°17' W 070°06'0 0.0
2015-May-16 01:28N 41°17' W 070°06'0 0.3
2015-May-16 00:13N 41°17' W 070°05'6 8.8
2015-May-15 23:33N 41°23' W 070°07'14 7.1
2015-May-15 21:33N 41°37' W 070°03'4 3.7
2015-May-15 20:33N 41°36' W 070°08'4 3.6
2015-May-15 19:24N 41°36' W 070°13'10 1.3
2015-May-15 11:34N 41°30' W 070°25'10 9.0
2015-May-15 10:29N 41°30' W 070°38'3 2.6
2015-May-15 09:29N 41°32' W 070°40'0 0.0
2015-May-15 08:32N 41°32' W 070°40'0 0.0
2015-May-15 07:32N 41°32' W 070°40'0 0.0
2015-May-15 06:29N 41°32' W 070°40'0 0.0
2015-May-15 05:32N 41°32' W 070°40'0 0.0
2015-May-15 04:14N 41°32' W 070°40'0 0.0
2015-May-15 03:23N 41°32' W 070°40'0 0.0
2015-May-15 01:33N 41°32' W 070°40'0 0.0
2015-May-15 00:33N 41°32' W 070°40'0 0.0
2015-May-14 23:33N 41°32' W 070°40'0 0.0
2015-May-14 22:32N 41°32' W 070°40'3 3.5
2015-May-14 21:33N 41°30' W 070°37'  
Track history (hours):
 
Tides and Currents Weather Stations Pressure Air Temp Water Temp Dewpoint Dewpoint Depression Visibility Wind Speed Wind Dir Waves Ship Positions

Noaa Gloria Michelle

Last reported at 2015-May-22 19:30 UTC. Time now 2015-May-29 04:08 UTC.
Position N 41°32' W 070°40'.

Length 22 m; draft 3 m.

Type: Fishing. MMSI: 338066383.

Date/timePositionNaut miles runAvg speedWind from/ knotsBaromVisibWave heightAir tempDewpointWater temp
2015-May-22 19:30N 41°32' W 070°40'0 0.0
2015-May-22 09:26N 41°32' W 070°40'0 0.0
2015-May-22 00:20N 41°32' W 070°40'0 0.0
2015-May-21 23:32N 41°32' W 070°40'0 0.0
2015-May-21 22:32N 41°32' W 070°40'0 0.0
2015-May-21 21:26N 41°32' W 070°40'0 0.0
2015-May-21 20:25N 41°32' W 070°41'6 5.8
2015-May-21 19:25N 41°30' W 070°48'10 8.2
2015-May-21 18:15N 41°27' W 071°00'3 3.9
2015-May-21 17:30N 41°30' W 071°03'3 3.0
2015-May-21 16:33N 41°27' W 071°03'3 2.9
2015-May-21 15:33N 41°25' W 070°60'7 6.9
2015-May-21 14:33N 41°20' W 070°54'1 1.4
2015-May-21 13:34N 41°21' W 070°54'1 0.8
2015-May-21 12:33N 41°21' W 070°53'2 2.4
2015-May-21 11:33N 41°22' W 070°50'8 7.4
2015-May-21 10:32N 41°28' W 070°44'5 0.2
2015-May-20 06:13N 41°32' W 070°40'0 0.0
2015-May-20 04:18N 41°32' W 070°40'0 0.0
2015-May-20 03:12N 41°32' W 070°40'0 0.0
2015-May-20 02:24N 41°32' W 070°40'0 0.0
2015-May-20 01:27N 41°32' W 070°40'0 0.0
2015-May-20 00:30N 41°32' W 070°40'0 0.0
2015-May-19 23:34N 41°32' W 070°40'0 0.0
2015-May-19 22:33N 41°32' W 070°40'0 0.0
2015-May-19 12:25N 41°32' W 070°40'0 0.0
2015-May-19 11:31N 41°32' W 070°40'0 0.0
2015-May-19 10:28N 41°32' W 070°40'0 0.0
2015-May-19 09:31N 41°32' W 070°40'0 0.0
2015-May-19 08:25N 41°32' W 070°40'0 0.0
2015-May-19 07:31N 41°32' W 070°40'0 0.0
2015-May-19 06:31N 41°32' W 070°40'0 0.0
2015-May-19 05:31N 41°32' W 070°40'0 0.0
2015-May-19 04:31N 41°32' W 070°40'0 0.0
2015-May-19 03:31N 41°32' W 070°40'0 0.0
2015-May-19 02:31N 41°32' W 070°40'0 0.0
2015-May-19 01:31N 41°32' W 070°40'0 0.0
2015-May-19 00:31N 41°32' W 070°40'0 0.0
2015-May-18 23:31N 41°32' W 070°40'0 0.0
2015-May-18 22:28N 41°32' W 070°40'0 0.0
2015-May-18 18:19N 41°32' W 070°40'0 0.0
2015-May-18 17:31N 41°32' W 070°40'2 1.6
2015-May-18 16:33N 41°30' W 070°40'6 5.8
2015-May-18 15:30N 41°26' W 070°47'6 6.6
2015-May-18 14:33N 41°22' W 070°53'1 1.2
2015-May-18 13:33N 41°21' W 070°54'6 5.5
2015-May-18 12:32N 41°18' W 070°48'3 2.9
2015-May-18 11:33N 41°17' W 070°45'1 0.8
2015-May-18 10:33N 41°18' W 070°44'2 2.4
2015-May-18 09:33N 41°20' W 070°43'0 0.1
2015-May-18 08:33N 41°20' W 070°43'0 0.0
2015-May-18 07:27N 41°20' W 070°43'0 0.0
2015-May-18 04:32N 41°20' W 070°43'0 0.0
2015-May-18 03:33N 41°20' W 070°43'0 0.0
2015-May-18 02:33N 41°20' W 070°43'0 0.0
2015-May-18 01:32N 41°20' W 070°43'0 0.0
2015-May-18 00:33N 41°20' W 070°43'4 3.6
2015-May-17 23:28N 41°19' W 070°38'4 3.3
2015-May-17 22:13N 41°19' W 070°32'2 0.7
2015-May-17 19:33N 41°19' W 070°30'6 5.1
2015-May-17 18:27N 41°15' W 070°25'8 9.1
2015-May-17 17:33N 41°14' W 070°14'3 2.8
2015-May-17 16:33N 41°14' W 070°10'5 5.2
2015-May-17 15:33N 41°15' W 070°17'2 1.9
2015-May-17 14:13N 41°16' W 070°20'2 2.8
2015-May-17 13:32N 41°16' W 070°22'6 4.5
2015-May-17 12:10N 41°22' W 070°24'13 0.6
2015-May-16 14:20N 41°29' W 070°08'7 8.6
2015-May-16 13:33N 41°23' W 070°05'2 1.6
2015-May-16 12:32N 41°22' W 070°04'2 1.8
2015-May-16 11:25N 41°21' W 070°06'1 0.8
2015-May-16 10:32N 41°20' W 070°07'4 2.8
2015-May-16 09:16N 41°17' W 070°06'0 0.0
2015-May-16 08:28N 41°17' W 070°06'0 0.0
2015-May-16 07:04N 41°17' W 070°06'0 0.0
2015-May-16 06:13N 41°17' W 070°06'0 0.0
2015-May-16 05:28N 41°17' W 070°06'0 0.0
2015-May-16 04:31N 41°17' W 070°06'0 0.0
2015-May-16 03:31N 41°17' W 070°06'0 0.0
2015-May-16 02:23N 41°17' W 070°06'0 0.0
2015-May-16 01:28N 41°17' W 070°06'0 0.3
2015-May-16 00:13N 41°17' W 070°05'6 8.8
2015-May-15 23:33N 41°23' W 070°07'14 7.1
2015-May-15 21:33N 41°37' W 070°03'4 3.7
2015-May-15 20:33N 41°36' W 070°08'4 3.6
2015-May-15 19:24N 41°36' W 070°13'10 1.3
2015-May-15 11:34N 41°30' W 070°25'10 9.0
2015-May-15 10:29N 41°30' W 070°38'3 2.6
2015-May-15 09:29N 41°32' W 070°40'0 0.0
2015-May-15 08:32N 41°32' W 070°40'0 0.0
2015-May-15 07:32N 41°32' W 070°40'0 0.0
2015-May-15 06:29N 41°32' W 070°40'0 0.0
2015-May-15 05:32N 41°32' W 070°40'0 0.0
2015-May-15 04:14N 41°32' W 070°40'0 0.0
2015-May-15 03:23N 41°32' W 070°40'0 0.0
2015-May-15 01:33N 41°32' W 070°40'0 0.0
2015-May-15 00:33N 41°32' W 070°40'0 0.0
2015-May-14 23:33N 41°32' W 070°40'0 0.0
2015-May-14 22:32N 41°32' W 070°40'3 3.5
2015-May-14 21:33N 41°30' W 070°37'  

Dump ship's entire track history